Time;durP1;ratioP1;P1;durP2;ratioP2;P2;SDS_P1;SDS_P2;PMS_P1;PMS_P2;Temp;Humidity;BMP_temperature;BMP_pressure;BME280_temperature;BME280_humidity;BME280_pressure;Samples;Min_cycle;Max_cycle;Signal;HPM_P1;HPM_P2
2022/09/15 00:00:52;;;;;;;15.93;11.80;;;;;;;14.96;85.68;100484.59;3582244;39;20082;-64
2022/09/15 00:03:21;;;;;;;14.68;11.20;;;;;;;14.94;85.30;100490.16;3590338;39;20122;-64
2022/09/15 00:05:47;;;;;;;16.95;12.25;;;;;;;14.94;85.18;100483.84;3590698;39;20061;-64
2022/09/15 00:08:13;;;;;;;16.75;12.18;;;;;;;14.93;84.85;100487.56;3589394;39;20103;-63
2022/09/15 00:10:57;;;;;;;14.35;12.13;;;;;;;14.91;85.41;100485.00;3588111;39;20442;-64
2022/09/15 00:13:24;;;;;;;16.17;12.38;;;;;;;14.90;84.89;100488.66;3589523;39;20047;-65
2022/09/15 00:15:50;;;;;;;18.38;12.27;;;;;;;14.87;84.68;100488.94;3588602;39;20052;-65
2022/09/15 00:18:16;;;;;;;14.73;11.95;;;;;;;14.85;85.09;100491.78;3588284;39;20379;-63
2022/09/15 00:20:44;;;;;;;16.55;11.93;;;;;;;14.83;84.71;100484.78;3585684;39;20060;-64
2022/09/15 00:23:13;;;;;;;17.15;11.93;;;;;;;14.80;84.87;100488.59;3589899;39;20134;-64
2022/09/15 00:25:46;;;;;;;16.58;11.95;;;;;;;14.75;85.02;100490.84;3591362;39;20056;-65
2022/09/15 00:28:15;;;;;;;15.13;12.48;;;;;;;14.74;85.08;100481.00;3590043;39;20048;-63
2022/09/15 00:30:48;;;;;;;17.05;11.70;;;;;;;14.70;85.30;100474.13;3590008;39;20056;-63
2022/09/15 00:33:17;;;;;;;15.30;12.38;;;;;;;14.73;85.03;100482.00;3592146;39;20054;-63
2022/09/15 00:35:47;;;;;;;17.83;13.65;;;;;;;14.48;85.31;100434.50;3590335;39;20129;-65
2022/09/15 00:38:14;;;;;;;17.92;13.25;;;;;;;14.68;85.51;100472.53;3592598;39;20281;-64
2022/09/15 00:40:50;;;;;;;15.95;13.00;;;;;;;14.69;85.71;100474.28;3589073;39;20046;-63
2022/09/15 00:43:39;;;;;;;16.88;12.55;;;;;;;14.69;86.06;100471.56;3589947;39;20367;-64
2022/09/15 00:46:05;;;;;;;18.05;12.75;;;;;;;14.68;85.88;100468.00;3586462;39;20072;-63
2022/09/15 00:48:31;;;;;;;16.98;13.05;;;;;;;14.73;86.27;100473.03;3589487;39;20137;-64
2022/09/15 00:51:00;;;;;;;18.63;12.65;;;;;;;14.73;86.24;100479.28;3589130;39;20452;-65
2022/09/15 00:53:28;;;;;;;15.95;13.05;;;;;;;14.75;86.01;100479.19;3591351;39;20058;-64
2022/09/15 00:55:58;;;;;;;20.77;12.43;;;;;;;14.74;85.50;100477.44;3592383;39;20059;-64
2022/09/15 00:58:37;;;;;;;19.05;13.35;;;;;;;14.75;86.51;100480.03;3592903;39;20052;-63
2022/09/15 01:01:06;;;;;;;16.73;13.40;;;;;;;14.76;85.85;100481.75;3592977;39;20067;-63
2022/09/15 01:03:34;;;;;;;19.40;14.07;;;;;;;14.68;85.92;100459.03;3590788;39;20092;-64
2022/09/15 01:06:14;;;;;;;18.05;13.73;;;;;;;14.72;86.00;100468.63;3591181;39;20630;-64
2022/09/15 01:09:18;;;;;;;15.20;13.30;;;;;;;14.80;86.49;100482.31;3590394;39;20436;-65
2022/09/15 01:11:44;;;;;;;20.52;14.18;;;;;;;14.83;86.11;100482.06;3590054;39;20063;-65
2022/09/15 01:14:10;;;;;;;18.98;13.40;;;;;;;14.82;85.33;100474.94;3590352;39;20055;-65
2022/09/15 01:17:02;;;;;;;19.77;14.75;;;;;;;14.79;85.36;100469.81;3590120;39;21459;-64
2022/09/15 01:20:02;;;;;;;16.85;14.10;;;;;;;14.79;85.38;100477.91;3587850;39;20050;-65
2022/09/15 01:23:00;;;;;;;19.95;13.85;;;;;;;14.79;86.24;100475.22;3588685;39;20063;-65
2022/09/15 01:26:03;;;;;;;17.13;13.57;;;;;;;14.82;86.35;100469.53;3589811;39;20119;-65
2022/09/15 01:29:13;;;;;;;21.20;14.70;;;;;;;14.85;86.09;100470.13;3589545;39;20055;-64
2022/09/15 01:35:03;;;;;;;23.13;14.15;;;;;;;14.89;86.15;100470.72;3589291;39;21710;-65
2022/09/15 01:37:38;;;;;;;17.00;13.63;;;;;;;14.92;86.88;100473.16;3588880;39;20050;-65
2022/09/15 01:40:09;;;;;;;19.55;14.65;;;;;;;14.95;86.43;100467.50;3590037;39;20063;-65
2022/09/15 01:42:38;;;;;;;18.30;14.35;;;;;;;14.99;86.36;100476.19;3591177;39;20047;-65
2022/09/15 01:45:22;;;;;;;21.70;14.40;;;;;;;14.92;86.46;100459.63;3587773;39;20068;-65
2022/09/15 01:47:55;;;;;;;19.85;14.25;;;;;;;15.03;85.55;100473.13;3588102;39;20068;-65
2022/09/15 01:50:35;;;;;;;17.85;13.48;;;;;;;15.02;85.42;100468.69;3590081;39;20565;-65
2022/09/15 01:53:11;;;;;;;17.75;13.27;;;;;;;15.00;85.37;100470.69;3588464;39;20383;-65
2022/09/15 01:55:55;;;;;;;18.45;13.50;;;;;;;14.98;85.38;100467.22;3589981;39;20056;-65
2022/09/15 01:58:21;;;;;;;17.00;14.45;;;;;;;14.98;84.88;100479.91;3590592;39;20267;-65
2022/09/15 02:01:30;;;;;;;19.25;14.57;;;;;;;14.92;85.07;100467.75;3588234;39;20053;-65
2022/09/15 02:04:26;;;;;;;21.15;14.95;;;;;;;14.90;85.40;100472.44;3590461;39;20356;-65
2022/09/15 02:07:12;;;;;;;16.05;14.00;;;;;;;14.88;85.23;100468.16;3588577;39;20287;-65
2022/09/15 02:10:10;;;;;;;22.73;14.82;;;;;;;14.82;84.98;100469.53;3586949;39;20095;-65
2022/09/15 02:13:14;;;;;;;23.38;14.57;;;;;;;14.84;85.23;100472.94;3581590;40;20079;-65
2022/09/15 02:15:50;;;;;;;16.48;14.30;;;;;;;14.84;85.38;100481.06;3584536;39;20135;-65
2022/09/15 02:18:37;;;;;;;20.55;15.00;;;;;;;14.83;85.23;100463.97;3587884;39;20052;-65
2022/09/15 02:21:20;;;;;;;20.63;14.90;;;;;;;14.83;86.14;100466.69;3587667;39;20052;-65
2022/09/15 02:24:02;;;;;;;20.50;15.82;;;;;;;14.83;85.69;100463.13;3588111;39;20052;-65
2022/09/15 02:26:33;;;;;;;21.70;15.73;;;;;;;14.84;85.64;100467.53;3587606;39;20059;-66
2022/09/15 02:29:06;;;;;;;23.45;14.98;;;;;;;14.84;85.87;100467.53;3586241;39;20086;-65
2022/09/15 02:31:38;;;;;;;21.70;15.93;;;;;;;14.84;85.74;100462.13;3592624;39;20115;-65
2022/09/15 02:34:15;;;;;;;18.17;15.05;;;;;;;14.84;85.50;100468.44;3588736;39;20129;-66
2022/09/15 02:36:42;;;;;;;20.13;14.73;;;;;;;14.81;85.18;100459.69;3588743;39;20151;-66
2022/09/15 02:39:16;;;;;;;20.63;16.08;;;;;;;14.77;85.03;100467.22;3587232;39;20133;-65
2022/09/15 02:41:42;;;;;;;;;;;;;;;14.71;85.71;100465.03;3588894;39;20059;-65
2022/09/15 02:44:08;;;;;;;16.10;14.07;;;;;;;14.71;85.29;100467.72;3585874;39;19940;-65
2022/09/15 02:46:35;;;;;;;19.25;14.65;;;;;;;14.70;85.68;100473.28;3589270;39;20052;-65
2022/09/15 02:49:01;;;;;;;18.27;15.38;;;;;;;14.66;85.71;100477.25;3589397;39;20053;-65
2022/09/15 02:51:27;;;;;;;19.30;14.32;;;;;;;14.62;85.42;100476.66;3588773;39;20078;-65
2022/09/15 02:53:53;;;;;;;21.02;15.27;;;;;;;14.61;85.41;100473.06;3588217;39;20067;-64
2022/09/15 02:56:19;;;;;;;20.75;15.32;;;;;;;14.57;85.86;100474.31;3587973;39;20099;-65
2022/09/15 02:58:45;;;;;;;19.40;15.05;;;;;;;14.51;85.63;100472.13;3589221;39;20064;-66
2022/09/15 03:01:14;;;;;;;16.95;14.52;;;;;;;14.52;85.96;100471.13;3586438;39;20067;-65
2022/09/15 03:03:43;;;;;;;19.08;15.43;;;;;;;14.48;85.77;100477.75;3589146;39;20047;-66
2022/09/15 03:06:15;;;;;;;22.02;14.50;;;;;;;14.45;85.55;100477.16;3589123;39;20686;-66
2022/09/15 03:08:52;;;;;;;21.02;15.38;;;;;;;14.40;85.64;100480.25;3588976;39;20056;-66
2022/09/15 03:11:22;;;;;;;18.80;15.55;;;;;;;14.35;85.60;100482.47;3588646;39;20060;-65
2022/09/15 03:13:57;;;;;;;18.10;14.98;;;;;;;14.33;85.88;100488.00;3588507;39;20411;-64
2022/09/15 03:16:24;;;;;;;19.58;15.57;;;;;;;14.31;86.36;100481.03;3589409;39;20075;-65
2022/09/15 03:18:51;;;;;;;20.05;16.15;;;;;;;14.01;86.19;100431.19;3587682;39;20071;-65
2022/09/15 03:21:17;;;;;;;20.60;16.02;;;;;;;14.28;87.15;100487.53;3590470;39;20350;-65
2022/09/15 03:23:44;;;;;;;17.65;15.32;;;;;;;14.27;86.41;100493.06;3589313;39;20052;-65
2022/09/15 03:26:10;;;;;;;20.58;15.52;;;;;;;14.29;86.43;100501.91;3586914;39;20063;-66
2022/09/15 03:28:38;;;;;;;21.02;16.50;;;;;;;14.29;86.13;100488.41;3588942;39;20067;-65
2022/09/15 03:31:06;;;;;;;21.67;15.65;;;;;;;14.11;86.27;100464.63;3588718;39;20056;-64
2022/09/15 03:33:31;;;;;;;22.33;15.48;;;;;;;14.31;86.82;100499.97;3588708;39;20054;-65
2022/09/15 03:35:57;;;;;;;19.73;15.38;;;;;;;14.31;86.85;100497.25;3589184;39;20048;-65
2022/09/15 03:38:23;;;;;;;20.40;16.48;;;;;;;14.35;86.79;100504.97;3588765;39;20327;-64
2022/09/15 03:41:15;;;;;;;18.92;15.55;;;;;;;14.38;86.78;100504.72;3588413;39;20494;-65
2022/09/15 03:43:41;;;;;;;18.67;15.48;;;;;;;14.44;87.20;100500.66;3586485;39;20131;-65
2022/09/15 03:46:10;;;;;;;19.48;15.50;;;;;;;14.48;86.84;100502.09;3588276;39;20389;-65
2022/09/15 03:48:39;;;;;;;21.85;15.88;;;;;;;14.51;86.45;100506.44;3587671;39;20280;-64
2022/09/15 03:51:07;;;;;;;19.50;15.35;;;;;;;14.50;86.50;100500.13;3588334;39;20055;-63
2022/09/15 03:53:36;;;;;;;17.83;15.32;;;;;;;14.53;86.07;100501.78;3589346;39;20055;-65
2022/09/15 03:56:31;;;;;;;18.67;15.07;;;;;;;14.52;86.42;100506.28;3589304;39;20113;-65
2022/09/15 03:59:03;;;;;;;20.40;15.25;;;;;;;14.48;85.98;100499.41;3586760;39;20056;-64
2022/09/15 04:01:31;;;;;;;23.48;16.02;;;;;;;14.43;86.17;100490.81;3587851;39;20416;-65
2022/09/15 04:03:57;;;;;;;19.23;14.75;;;;;;;14.50;85.93;100505.53;3589271;39;20125;-64
2022/09/15 04:06:25;;;;;;;20.90;15.43;;;;;;;14.51;86.03;100498.31;3589054;39;20125;-64
2022/09/15 04:08:52;;;;;;;16.27;14.57;;;;;;;14.50;85.85;100502.00;3588451;39;20103;-63
2022/09/15 04:11:20;;;;;;;19.52;15.27;;;;;;;14.35;85.69;100469.81;3586841;39;20148;-63
2022/09/15 04:13:47;;;;;;;21.75;15.75;;;;;;;14.50;85.69;100493.88;3588607;39;20054;-65
2022/09/15 04:16:24;;;;;;;18.67;14.85;;;;;;;14.47;85.65;100492.28;3589569;39;20334;-65
2022/09/15 04:18:51;;;;;;;20.38;14.32;;;;;;;14.50;85.72;100500.13;3588871;39;20052;-64
2022/09/15 04:21:21;;;;;;;20.67;15.45;;;;;;;14.48;85.51;100501.25;3588926;39;20048;-65
2022/09/15 04:23:49;;;;;;;18.00;15.38;;;;;;;14.48;86.22;100496.69;3590316;39;20052;-64
2022/09/15 04:26:30;;;;;;;16.08;14.38;;;;;;;14.48;85.73;100504.81;3590960;39;20137;-65
2022/09/15 04:28:57;;;;;;;16.50;14.25;;;;;;;14.41;85.89;100487.38;3588898;39;20069;-64
2022/09/15 04:31:23;;;;;;;22.05;15.20;;;;;;;14.54;86.35;100504.31;3591325;39;20067;-64
2022/09/15 04:33:53;;;;;;;17.52;14.90;;;;;;;14.57;86.24;100500.50;3590848;39;20055;-66
2022/09/15 04:36:23;;;;;;;16.90;14.25;;;;;;;14.59;86.03;100502.09;3588666;39;20090;-65
2022/09/15 04:38:49;;;;;;;17.95;15.00;;;;;;;14.58;85.86;100488.69;3590212;39;20391;-65
2022/09/15 04:41:17;;;;;;;18.75;15.32;;;;;;;14.66;85.59;100498.88;3591412;39;20056;-64
2022/09/15 04:43:43;;;;;;;20.98;14.93;;;;;;;14.68;85.53;100499.59;3590763;39;20351;-64
2022/09/15 04:46:11;;;;;;;20.77;15.50;;;;;;;14.51;85.40;100469.41;3591764;39;20282;-65
2022/09/15 04:48:37;;;;;;;20.48;15.00;;;;;;;14.74;85.47;100509.91;3590606;39;20086;-64
2022/09/15 04:51:11;;;;;;;21.15;16.45;;;;;;;14.75;85.63;100506.25;3589991;39;20056;-64
2022/09/15 04:53:37;;;;;;;18.08;14.57;;;;;;;14.74;85.70;100510.75;3588176;39;20083;-65
2022/09/15 04:56:16;;;;;;;18.60;15.20;;;;;;;14.78;85.47;100511.34;3588724;39;20104;-65
2022/09/15 04:58:50;;;;;;;16.85;15.00;;;;;;;14.80;85.39;100509.38;3588875;39;20056;-64
2022/09/15 05:01:21;;;;;;;16.35;14.48;;;;;;;14.81;85.72;100509.28;3590614;39;20048;-64
2022/09/15 05:03:48;;;;;;;18.88;14.50;;;;;;;14.82;85.49;100504.72;3587268;39;20121;-64
2022/09/15 05:06:18;;;;;;;16.88;14.48;;;;;;;14.64;85.15;100477.38;3588556;39;20066;-65
2022/09/15 05:08:49;;;;;;;16.38;14.50;;;;;;;14.84;84.52;100510.84;3590954;39;20141;-64
2022/09/15 05:11:16;;;;;;;19.02;15.18;;;;;;;14.84;84.96;100502.72;3587963;39;20048;-65
2022/09/15 05:13:42;;;;;;;20.20;15.38;;;;;;;14.80;85.08;100487.75;3590583;39;20055;-63
2022/09/15 05:16:17;;;;;;;17.33;14.65;;;;;;;14.84;84.58;100497.31;3589906;39;20071;-63
2022/09/15 05:18:45;;;;;;;20.75;15.73;;;;;;;14.82;84.97;100493.91;3590483;39;20103;-64
2022/09/15 05:21:14;;;;;;;18.00;15.18;;;;;;;14.66;84.92;100469.13;3590861;39;20106;-64
2022/09/15 05:23:41;;;;;;;18.67;15.48;;;;;;;14.81;85.00;100502.97;3590844;39;20059;-63
2022/09/15 05:26:20;;;;;;;18.80;15.07;;;;;;;14.80;85.21;100498.56;3590159;39;20089;-64
2022/09/15 05:28:46;;;;;;;20.50;15.80;;;;;;;14.76;85.02;100494.41;3589426;39;20070;-64
2022/09/15 05:31:16;;;;;;;21.98;16.48;;;;;;;14.75;85.16;100507.09;3590654;39;20091;-63
2022/09/15 05:33:43;;;;;;;18.50;16.02;;;;;;;14.78;85.94;100500.53;3580097;39;20047;-62
2022/09/15 05:36:09;;;;;;;17.98;16.08;;;;;;;14.80;85.46;100504.84;3588691;39;20052;-63
2022/09/15 05:38:35;;;;;;;17.63;15.30;;;;;;;14.81;85.86;100506.56;3586652;40;20058;-63
2022/09/15 05:41:09;;;;;;;17.27;15.40;;;;;;;14.73;85.75;100492.81;3588804;39;20116;-63
2022/09/15 05:43:37;;;;;;;19.48;16.27;;;;;;;14.83;86.16;100517.25;3588690;39;20064;-63
2022/09/15 05:46:06;;;;;;;19.08;16.23;;;;;;;14.87;86.02;100516.00;3590891;39;20055;-63
2022/09/15 05:48:33;;;;;;;17.58;15.85;;;;;;;14.82;85.90;100507.44;3588980;39;20070;-63
2022/09/15 05:50:59;;;;;;;18.42;16.10;;;;;;;14.34;85.97;100426.69;3594789;39;20063;-63
2022/09/15 05:53:25;;;;;;;18.75;15.43;;;;;;;14.84;85.66;100500.00;3590171;39;20418;-63
2022/09/15 05:56:05;;;;;;;21.15;16.27;;;;;;;15.02;86.33;100530.94;3591653;39;20063;-64
2022/09/15 05:58:32;;;;;;;17.92;14.88;;;;;;;14.94;85.70;100519.91;3592083;39;20054;-63
2022/09/15 06:01:13;;;;;;;17.73;14.95;;;;;;;15.08;85.77;100535.81;3588286;39;20061;-62
2022/09/15 06:03:39;;;;;;;18.20;15.38;;;;;;;15.07;85.15;100534.13;3587563;39;20058;-62
2022/09/15 06:06:06;;;;;;;20.30;15.48;;;;;;;14.99;84.66;100525.78;3592404;39;20063;-63
2022/09/15 06:08:42;;;;;;;17.45;15.27;;;;;;;15.11;84.88;100533.84;3580421;40;20055;-64
2022/09/15 06:11:14;;;;;;;20.20;15.43;;;;;;;15.07;85.26;100534.13;3588372;39;20318;-66
2022/09/15 06:13:41;;;;;;;18.52;15.10;;;;;;;15.14;84.80;100542.56;3587068;39;20110;-65
2022/09/15 06:16:11;;;;;;;21.50;16.13;;;;;;;15.17;84.63;100555.00;3587867;39;20056;-65
2022/09/15 06:18:39;;;;;;;21.15;15.30;;;;;;;15.18;85.40;100548.56;3586432;39;20050;-64
2022/09/15 06:21:09;;;;;;;18.35;15.63;;;;;;;15.08;85.11;100535.81;3586108;39;20347;-64
2022/09/15 06:23:36;;;;;;;18.10;14.77;;;;;;;15.24;85.17;100554.31;3587110;39;20048;-65
2022/09/15 06:26:16;;;;;;;19.00;15.75;;;;;;;15.26;83.85;100563.19;3586961;39;20082;-65
2022/09/15 06:28:55;;;;;;;19.50;15.85;;;;;;;15.32;84.62;100561.81;3586833;39;20330;-63
2022/09/15 06:31:22;;;;;;;17.77;15.55;;;;;;;15.38;84.38;100561.28;3586393;39;20085;-64
2022/09/15 06:33:51;;;;;;;20.00;17.15;;;;;;;15.43;85.11;100564.44;3585990;39;20067;-65
2022/09/15 06:36:20;;;;;;;17.70;15.25;;;;;;;15.50;84.24;100567.47;3586536;39;20070;-65
2022/09/15 06:38:46;;;;;;;17.55;15.63;;;;;;;15.53;84.52;100567.19;3586856;39;20047;-64
2022/09/15 06:41:14;;;;;;;16.95;15.15;;;;;;;15.57;84.53;100574.06;3587736;39;20136;-64
2022/09/15 06:43:40;;;;;;;19.77;15.60;;;;;;;15.61;84.80;100564.69;3586281;39;20048;-64
2022/09/15 06:46:16;;;;;;;17.92;14.48;;;;;;;15.64;84.22;100574.41;3586743;39;20060;-64
2022/09/15 06:48:42;;;;;;;23.42;15.63;;;;;;;15.67;83.56;100576.91;3585113;39;20126;-64
2022/09/15 06:51:11;;;;;;;19.98;14.85;;;;;;;15.71;84.10;100572.91;3587477;39;20376;-65
2022/09/15 06:53:38;;;;;;;17.40;15.18;;;;;;;15.64;83.65;100558.16;3586614;39;20059;-63
2022/09/15 06:56:18;;;;;;;19.10;14.80;;;;;;;15.75;83.91;100574.34;3587430;39;20063;-64
2022/09/15 06:58:47;;;;;;;18.25;13.82;;;;;;;15.83;83.21;100590.81;3589400;39;20067;-64
2022/09/15 07:01:24;;;;;;;18.95;14.77;;;;;;;15.87;84.20;100592.25;3585716;39;20059;-64
2022/09/15 07:03:50;;;;;;;20.77;14.77;;;;;;;15.92;84.23;100594.53;3587013;39;20111;-64
2022/09/15 07:06:17;;;;;;;18.00;14.35;;;;;;;15.97;84.11;100598.56;3585364;39;20052;-64
2022/09/15 07:08:44;;;;;;;21.30;15.02;;;;;;;16.06;83.48;100604.19;3586276;39;20064;-64
2022/09/15 07:11:09;;;;;;;17.98;14.70;;;;;;;16.11;83.74;100605.50;3586364;39;20117;-64
2022/09/15 07:13:36;;;;;;;19.67;14.68;;;;;;;16.17;83.70;100599.50;3585689;39;20052;-66
2022/09/15 07:16:06;;;;;;;17.27;14.25;;;;;;;16.14;82.80;100579.94;3585657;39;20067;-64
2022/09/15 07:18:32;;;;;;;18.38;14.50;;;;;;;16.34;82.69;100605.31;3582997;39;20586;-64
2022/09/15 07:21:02;;;;;;;18.77;14.63;;;;;;;16.39;82.23;100613.88;3584319;39;20059;-64
2022/09/15 07:23:28;;;;;;;16.63;13.10;;;;;;;15.74;81.71;100494.91;3587696;39;20089;-64
2022/09/15 07:26:20;;;;;;;15.10;13.50;;;;;;;16.54;81.52;100617.06;3582935;39;20055;-65
2022/09/15 07:28:50;;;;;;;16.55;12.57;;;;;;;16.62;81.90;100606.41;3584180;39;20066;-65
2022/09/15 07:31:20;;;;;;;16.00;12.25;;;;;;;16.70;80.89;100606.53;3585455;39;20049;-64
2022/09/15 07:33:47;;;;;;;14.20;12.18;;;;;;;16.76;81.05;100616.88;3585158;39;20291;-64
2022/09/15 07:36:13;;;;;;;16.13;12.38;;;;;;;16.82;80.84;100619.03;3587875;39;20060;-65
2022/09/15 07:38:43;;;;;;;16.23;12.30;;;;;;;16.84;81.36;100613.44;3584625;39;20335;-64
2022/09/15 07:41:14;;;;;;;14.98;12.50;;;;;;;16.93;80.46;100621.59;3586461;39;20058;-65
2022/09/15 07:43:48;;;;;;;14.52;11.00;;;;;;;16.93;79.95;100624.31;3584181;39;20088;-64
2022/09/15 07:46:15;;;;;;;11.85;10.65;;;;;;;16.95;80.56;100618.75;3586648;39;20056;-65
2022/09/15 07:48:44;;;;;;;18.92;10.80;;;;;;;17.05;79.66;100627.75;3585721;39;20071;-64
2022/09/15 07:51:10;;;;;;;14.95;11.00;;;;;;;17.11;79.76;100620.91;3587827;39;20076;-65
2022/09/15 07:53:36;;;;;;;11.93;10.77;;;;;;;17.17;80.74;100623.91;3587640;39;20048;-65
2022/09/15 07:56:02;;;;;;;13.68;11.73;;;;;;;17.21;80.58;100627.19;3586519;39;20056;-64
2022/09/15 07:58:28;;;;;;;13.35;11.27;;;;;;;17.24;80.10;100624.19;3586081;39;20082;-64
2022/09/15 08:00:53;;;;;;;11.93;10.65;;;;;;;17.25;79.87;100630.50;3590422;39;20062;-64
2022/09/15 08:03:19;;;;;;;15.75;11.80;;;;;;;17.28;79.97;100638.34;3588855;39;20063;-64
2022/09/15 08:05:45;;;;;;;15.52;10.57;;;;;;;17.28;79.98;100636.50;3586774;39;20064;-64
2022/09/15 08:08:10;;;;;;;10.98;9.50;;;;;;;17.30;79.27;100653.50;3589473;39;20329;-65
2022/09/15 08:10:39;;;;;;;13.20;9.45;;;;;;;17.35;78.37;100634.94;3589216;39;20052;-64
2022/09/15 08:13:05;;;;;;;12.98;8.88;;;;;;;17.42;77.59;100637.94;3588687;39;20118;-65
2022/09/15 08:15:34;;;;;;;12.02;9.07;;;;;;;17.44;77.66;100643.22;3589523;39;20400;-66
2022/09/15 08:18:01;;;;;;;13.77;9.32;;;;;;;17.44;77.09;100637.78;3588856;39;20370;-65
2022/09/15 08:20:26;;;;;;;11.95;9.30;;;;;;;17.45;77.66;100644.94;3589867;39;20378;-64
2022/09/15 08:22:52;;;;;;;11.30;9.57;;;;;;;17.44;77.55;100645.94;3589166;39;20136;-64
2022/09/15 08:25:17;;;;;;;10.93;9.18;;;;;;;17.48;77.51;100644.66;3587293;39;20410;-65
2022/09/15 08:27:43;;;;;;;13.07;9.65;;;;;;;17.55;78.24;100648.50;3584849;39;20052;-64
2022/09/15 08:30:09;;;;;;;11.27;9.65;;;;;;;17.63;77.96;100646.78;3590253;39;20351;-64
2022/09/15 08:32:35;;;;;;;16.00;9.55;;;;;;;17.58;76.58;100645.50;3588489;39;20104;-65
2022/09/15 08:35:00;;;;;;;16.75;9.52;;;;;;;17.69;76.63;100664.38;3587718;39;20399;-65
2022/09/15 08:37:26;;;;;;;12.63;9.73;;;;;;;17.73;76.41;100665.81;3587478;39;20184;-65
2022/09/15 08:39:51;;;;;;;12.75;10.18;;;;;;;17.68;76.49;100665.38;3589886;39;20044;-65
2022/09/15 08:42:22;;;;;;;12.70;9.20;;;;;;;17.50;77.23;100635.34;3589706;39;20499;-65
2022/09/15 08:45:03;;;;;;;12.75;8.82;;;;;;;17.62;76.38;100664.09;3589382;39;20122;-65
2022/09/15 08:47:41;;;;;;;12.98;9.35;;;;;;;17.64;77.78;100666.69;3588784;39;20052;-65
2022/09/15 08:50:21;;;;;;;14.13;9.05;;;;;;;17.66;77.28;100671.97;3584975;39;20051;-64
2022/09/15 08:52:57;;;;;;;11.63;8.95;;;;;;;17.58;76.80;100651.78;3588056;39;20063;-65
2022/09/15 08:55:48;;;;;;;15.93;7.85;;;;;;;17.69;75.76;100674.38;3589223;39;20342;-64
2022/09/15 08:58:20;;;;;;;13.85;8.40;;;;;;;17.66;75.74;100680.97;3589441;39;20072;-65
2022/09/15 09:00:52;;;;;;;14.00;8.32;;;;;;;17.51;75.98;100644.38;3589841;39;20044;-64
2022/09/15 09:03:31;;;;;;;10.57;7.72;;;;;;;17.70;76.94;100679.69;3591141;39;20056;-64
2022/09/15 09:06:30;;;;;;;12.57;7.47;;;;;;;17.76;76.21;100687.28;3588969;39;20248;-63
2022/09/15 09:09:15;;;;;;;10.70;7.88;;;;;;;17.86;76.31;100681.84;3579325;39;20055;-65
2022/09/15 09:12:17;;;;;;;11.57;8.10;;;;;;;17.91;75.97;100695.00;3589993;39;20526;-64
2022/09/15 09:15:14;;;;;;;9.25;7.53;;;;;;;17.88;74.69;100700.72;3589412;39;20052;-64
2022/09/15 09:17:57;;;;;;;9.95;7.25;;;;;;;17.97;74.71;100705.31;3591260;39;20184;-64
2022/09/15 09:20:55;;;;;;;10.75;7.80;;;;;;;18.11;75.65;100702.13;3590375;39;20252;-65
2022/09/15 09:23:27;;;;;;;10.77;6.72;;;;;;;18.26;74.42;100708.81;3589928;39;20077;-64
2022/09/15 09:25:56;;;;;;;12.32;6.75;;;;;;;18.38;72.51;100704.03;3587413;39;20052;-65
2022/09/15 09:28:34;;;;;;;8.57;5.90;;;;;;;18.46;72.08;100696.00;3588951;39;20080;-64
2022/09/15 09:31:14;;;;;;;7.45;5.50;;;;;;;18.52;72.04;100699.97;3587274;39;20060;-65
2022/09/15 09:33:55;;;;;;;7.68;5.47;;;;;;;18.62;71.53;100699.97;3590447;39;20048;-64
2022/09/15 09:36:21;;;;;;;7.40;5.72;;;;;;;18.66;71.26;100702.22;3589276;39;20142;-64
2022/09/15 09:38:49;;;;;;;8.65;5.70;;;;;;;18.71;70.49;100705.38;3590073;39;20079;-64
2022/09/15 09:41:34;;;;;;;10.57;5.45;;;;;;;18.68;71.41;100702.94;3590450;39;20063;-65
2022/09/15 09:44:04;;;;;;;6.93;4.85;;;;;;;18.66;69.29;100706.81;3589604;39;20044;-65
2022/09/15 09:46:30;;;;;;;10.07;4.85;;;;;;;18.61;69.34;100699.09;3592088;39;20063;-65
2022/09/15 09:49:15;;;;;;;8.98;5.65;;;;;;;18.57;70.51;100703.13;3589941;39;20136;-65
2022/09/15 09:51:58;;;;;;;9.48;5.95;;;;;;;18.48;69.95;100696.69;3587708;39;20048;-65
2022/09/15 09:54:30;;;;;;;10.88;5.55;;;;;;;18.45;70.40;100698.88;3590433;39;20401;-65
2022/09/15 09:57:29;;;;;;;8.38;5.60;;;;;;;18.42;71.29;100704.59;3586620;39;20391;-65
2022/09/15 09:59:56;;;;;;;12.32;6.43;;;;;;;18.36;71.43;100699.75;3588083;39;20327;-64
2022/09/15 10:02:24;;;;;;;9.88;7.15;;;;;;;18.27;71.82;100694.22;3591264;39;20068;-65
2022/09/15 10:05:01;;;;;;;8.80;6.93;;;;;;;18.23;72.53;100703.66;3589420;39;20095;-66
2022/09/15 10:07:32;;;;;;;10.20;6.55;;;;;;;18.21;71.63;100696.66;3590502;39;20051;-64
2022/09/15 10:10:00;;;;;;;8.15;5.80;;;;;;;18.15;72.39;100708.13;3588207;39;20101;-65
2022/09/15 10:12:40;;;;;;;10.05;5.47;;;;;;;18.06;71.79;100704.44;3587020;39;20371;-65
2022/09/15 10:15:32;;;;;;;9.63;5.68;;;;;;;18.03;72.96;100713.72;3588661;39;20414;-65
2022/09/15 10:18:00;;;;;;;9.10;5.22;;;;;;;17.99;71.94;100712.31;3589320;39;20399;-65
2022/09/15 10:20:38;;;;;;;7.75;5.32;;;;;;;17.96;72.17;100711.75;3589200;39;20063;-65
2022/09/15 10:23:28;;;;;;;11.65;5.13;;;;;;;17.92;72.70;100704.88;3589985;39;20442;-65
2022/09/15 10:26:15;;;;;;;7.45;3.97;;;;;;;17.79;70.42;100718.75;3590664;39;20055;-65
2022/09/15 10:28:42;;;;;;;8.98;4.97;;;;;;;17.73;72.00;100712.03;3590259;39;20075;-64
2022/09/15 10:31:23;;;;;;;7.93;4.55;;;;;;;17.72;73.53;100709.44;3588307;39;20559;-65
2022/09/15 10:33:48;;;;;;;6.80;4.43;;;;;;;17.66;72.96;100713.59;3588717;39;20461;-65
2022/09/15 10:36:27;;;;;;;8.93;4.30;;;;;;;17.63;73.00;100708.44;3592286;39;20044;-66
2022/09/15 10:39:11;;;;;;;5.63;3.50;;;;;;;17.59;72.85;100707.88;3586874;39;20431;-65
2022/09/15 10:42:08;;;;;;;5.35;3.00;;;;;;;17.62;72.70;100713.03;3585512;39;20084;-65
2022/09/15 10:44:54;;;;;;;8.32;2.63;;;;;;;17.65;71.30;100711.88;3586036;39;20413;-65
2022/09/15 10:47:42;;;;;;;5.03;3.10;;;;;;;17.71;72.54;100715.88;3587487;39;20468;-65
2022/09/15 10:50:29;;;;;;;7.10;2.70;;;;;;;17.72;71.16;100714.88;3587182;39;20101;-65
2022/09/15 10:53:23;;;;;;;6.32;2.40;;;;;;;17.16;71.09;100613.22;3588094;39;20133;-65
2022/09/15 10:55:58;;;;;;;;;;;;;;;17.86;72.08;100701.75;3587949;39;20078;-64
2022/09/15 10:58:51;;;;;;;4.07;2.00;;;;;;;18.17;71.05;100725.16;3586096;39;19932;-65
2022/09/15 11:01:29;;;;;;;6.75;2.20;;;;;;;18.23;69.62;100719.97;3588252;39;20056;-65
2022/09/15 11:04:27;;;;;;;4.75;1.85;;;;;;;18.24;69.98;100723.59;3588139;39;20066;-64
2022/09/15 11:07:22;;;;;;;6.57;2.33;;;;;;;18.22;69.81;100726.44;3586695;39;20051;-65
2022/09/15 11:10:11;;;;;;;3.97;1.60;;;;;;;18.42;69.34;100720.94;3585662;39;20571;-64
2022/09/15 11:13:10;;;;;;;4.38;1.83;;;;;;;18.55;66.85;100727.78;3586377;39;20099;-65
2022/09/15 11:15:48;;;;;;;2.40;1.10;;;;;;;18.74;65.83;100729.59;3585705;39;20052;-64
2022/09/15 11:19:12;;;;;;;5.40;1.95;;;;;;;18.88;63.98;100727.38;3587441;39;20374;-65
2022/09/15 11:22:10;;;;;;;5.00;1.48;;;;;;;18.99;64.27;100719.00;3587085;39;20334;-65
2022/09/15 11:24:50;;;;;;;5.15;1.60;;;;;;;19.17;64.75;100722.63;3585130;39;20096;-65
2022/09/15 11:27:33;;;;;;;2.78;1.25;;;;;;;19.25;63.01;100730.91;3586434;39;20697;-65
2022/09/15 11:30:23;;;;;;;2.90;1.27;;;;;;;19.13;58.73;100721.22;3588765;39;20059;-65
2022/09/15 11:33:11;;;;;;;4.72;1.42;;;;;;;19.24;59.39;100731.03;3585410;39;20056;-64
2022/09/15 11:36:19;;;;;;;4.80;1.40;;;;;;;19.37;59.57;100733.38;3586412;39;20060;-64
2022/09/15 11:39:00;;;;;;;4.07;1.10;;;;;;;19.44;58.01;100729.91;3584597;39;20048;-65
2022/09/15 11:41:49;;;;;;;6.38;3.03;;;;;;;19.49;56.73;100727.56;3586104;39;20063;-66
2022/09/15 11:44:30;;;;;;;3.47;1.20;;;;;;;19.50;56.40;100736.59;3588417;39;20343;-65
2022/09/15 11:47:30;;;;;;;3.85;1.27;;;;;;;19.52;55.97;100731.84;3590170;39;20377;-64
2022/09/15 11:50:20;;;;;;;2.65;1.13;;;;;;;19.45;57.96;100737.06;3589200;39;20048;-65